createdAt,value
2023-02-26T00:01:43.113Z,0.57
2023-02-26T00:04:11.173Z,0.77
2023-02-26T00:06:40.054Z,0.65
2023-02-26T00:09:07.505Z,0.90
2023-02-26T00:11:34.854Z,1.08
2023-02-26T00:14:02.111Z,0.80
2023-02-26T00:16:34.851Z,0.75
2023-02-26T00:19:06.412Z,1.13
2023-02-26T00:21:35.178Z,1.08
2023-02-26T00:24:07.029Z,0.80
2023-02-26T00:26:36.673Z,0.70
2023-02-26T00:29:05.239Z,0.75
2023-02-26T00:31:32.631Z,0.80
2023-02-26T00:33:59.798Z,0.95
2023-02-26T00:36:49.773Z,0.80
2023-02-26T00:39:21.734Z,0.88
2023-02-26T00:41:50.011Z,0.70
2023-02-26T00:44:17.167Z,0.82
2023-02-26T00:46:52.368Z,0.82
2023-02-26T00:49:19.180Z,0.75
2023-02-26T00:51:52.556Z,0.95
2023-02-26T00:54:26.163Z,0.70
2023-02-26T00:56:54.205Z,0.90
2023-02-26T00:59:24.815Z,0.77
2023-02-26T01:01:57.462Z,0.80
2023-02-26T01:04:24.878Z,1.05
2023-02-26T01:06:55.020Z,0.77
2023-02-26T01:09:27.621Z,0.68
2023-02-26T01:11:56.505Z,0.77
2023-02-26T01:14:24.249Z,0.60
2023-02-26T01:16:58.190Z,0.80
2023-02-26T01:19:50.581Z,0.70
2023-02-26T01:22:24.183Z,1.00
2023-02-26T01:24:57.196Z,0.75
2023-02-26T01:27:24.659Z,0.52
2023-02-26T01:29:52.132Z,0.70
2023-02-26T01:32:57.515Z,1.08
2023-02-26T01:35:37.969Z,1.10
2023-02-26T01:38:29.668Z,0.80
2023-02-26T01:41:14.031Z,0.70
2023-02-26T01:44:29.039Z,0.68
2023-02-26T01:47:07.307Z,0.55
2023-02-26T01:49:34.658Z,1.27
2023-02-26T01:52:07.033Z,0.93
2023-02-26T01:54:38.542Z,0.90
2023-02-26T01:57:07.022Z,0.73
2023-02-26T01:59:35.807Z,0.90
2023-02-26T02:02:05.110Z,0.80
2023-02-26T02:04:33.555Z,0.70
2023-02-26T02:07:00.644Z,0.70
2023-02-26T02:09:31.501Z,0.80
2023-02-26T02:12:01.934Z,0.60
2023-02-26T02:14:45.139Z,0.70
2023-02-26T02:17:20.532Z,0.65
2023-02-26T02:20:15.113Z,0.70
2023-02-26T02:23:03.282Z,0.73
2023-02-26T02:26:16.193Z,0.90
2023-02-26T02:29:11.329Z,0.75
2023-02-26T02:31:46.084Z,0.75
2023-02-26T02:34:27.287Z,1.02
2023-02-26T02:37:02.730Z,0.80
2023-02-26T02:39:33.121Z,1.00
2023-02-26T02:42:07.245Z,0.70
2023-02-26T02:44:37.620Z,0.70
2023-02-26T02:47:08.611Z,0.90
2023-02-26T02:49:47.771Z,0.60
2023-02-26T02:52:49.793Z,0.80
2023-02-26T02:55:30.051Z,0.60
2023-02-26T02:58:09.357Z,0.70
2023-02-26T03:00:41.526Z,0.85
2023-02-26T03:03:32.807Z,1.10
2023-02-26T03:05:59.623Z,0.70
2023-02-26T03:08:32.341Z,0.80
2023-02-26T03:11:02.608Z,0.60
2023-02-26T03:13:30.313Z,0.57
2023-02-26T03:16:26.915Z,0.75
2023-02-26T03:19:19.531Z,0.82
2023-02-26T03:21:58.285Z,0.70
2023-02-26T03:24:49.426Z,0.73
2023-02-26T03:27:29.706Z,0.90
2023-02-26T03:30:11.261Z,0.68
2023-02-26T03:32:46.510Z,0.90
2023-02-26T03:35:19.441Z,1.25
2023-02-26T03:37:49.570Z,0.82
2023-02-26T03:40:26.925Z,0.95
2023-02-26T03:43:08.309Z,0.93
2023-02-26T03:45:36.594Z,0.73
2023-02-26T03:48:07.836Z,1.08
2023-02-26T03:50:39.490Z,0.90
2023-02-26T03:53:11.317Z,0.90
2023-02-26T03:56:01.014Z,0.68
2023-02-26T03:58:28.143Z,0.60
2023-02-26T04:01:00.706Z,0.70
2023-02-26T04:03:36.147Z,0.60
2023-02-26T04:06:06.173Z,1.20
2023-02-26T04:08:36.186Z,0.85
2023-02-26T04:11:09.458Z,0.80
2023-02-26T04:13:36.304Z,0.60
2023-02-26T04:16:03.736Z,0.50
2023-02-26T04:18:31.230Z,1.02
2023-02-26T04:20:59.150Z,0.80
2023-02-26T04:23:26.847Z,0.60
2023-02-26T04:25:54.336Z,0.93
2023-02-26T04:28:21.943Z,0.60
2023-02-26T04:30:49.428Z,0.63
2023-02-26T04:33:16.815Z,0.73
2023-02-26T04:35:44.193Z,0.60
2023-02-26T04:38:13.922Z,0.90
2023-02-26T04:40:41.305Z,0.70
2023-02-26T04:43:08.805Z,0.63
2023-02-26T04:45:36.275Z,0.70
2023-02-26T04:48:03.805Z,0.70
2023-02-26T04:50:30.651Z,0.60
2023-02-26T04:52:58.167Z,0.68
2023-02-26T04:55:25.246Z,0.70
2023-02-26T04:57:55.194Z,0.90
2023-02-26T05:00:26.413Z,0.65
2023-02-26T05:02:53.587Z,0.60
2023-02-26T05:05:20.587Z,0.88
2023-02-26T05:07:47.870Z,0.70
2023-02-26T05:10:14.832Z,0.80
2023-02-26T05:12:41.976Z,0.70
2023-02-26T05:15:09.304Z,0.70
2023-02-26T05:17:37.671Z,0.68
2023-02-26T05:20:05.768Z,0.55
2023-02-26T05:22:32.804Z,0.70
2023-02-26T05:24:59.576Z,0.85
2023-02-26T05:27:27.760Z,0.77
2023-02-26T05:29:54.546Z,0.70
2023-02-26T05:32:21.754Z,0.70
2023-02-26T05:34:48.561Z,0.65
2023-02-26T05:37:15.612Z,1.05
2023-02-26T05:39:42.708Z,0.80
2023-02-26T05:42:09.782Z,0.90
2023-02-26T05:44:36.746Z,0.68
2023-02-26T05:47:03.980Z,0.75
2023-02-26T05:49:30.826Z,0.80
2023-02-26T05:51:57.994Z,1.08
2023-02-26T05:54:25.033Z,0.85
2023-02-26T05:56:52.145Z,0.70
2023-02-26T05:59:19.363Z,0.60
2023-02-26T06:01:48.258Z,0.60
2023-02-26T06:04:15.585Z,0.80
2023-02-26T06:06:45.439Z,0.88
2023-02-26T06:09:12.538Z,0.70
2023-02-26T06:11:40.641Z,0.60
2023-02-26T06:14:10.887Z,0.57
2023-02-26T06:16:38.500Z,0.70
2023-02-26T06:19:06.468Z,0.80
2023-02-26T06:21:33.364Z,0.70
2023-02-26T06:24:00.296Z,0.60
2023-02-26T06:26:29.665Z,0.60
2023-02-26T06:28:56.737Z,0.65
2023-02-26T06:31:26.371Z,0.60
2023-02-26T06:33:53.761Z,0.70
2023-02-26T06:36:20.688Z,0.77
2023-02-26T06:38:48.070Z,0.90
2023-02-26T06:41:19.381Z,0.70
2023-02-26T06:43:49.085Z,0.60
2023-02-26T06:46:16.375Z,0.90
2023-02-26T06:48:43.296Z,0.60
2023-02-26T06:51:10.507Z,0.70
2023-02-26T06:53:40.606Z,0.50
2023-02-26T06:56:08.040Z,0.63
2023-02-26T06:58:35.095Z,0.70
2023-02-26T07:01:04.312Z,0.70
2023-02-26T07:03:31.789Z,0.80
2023-02-26T07:06:06.418Z,0.70
2023-02-26T07:08:41.006Z,0.80
2023-02-26T07:11:09.196Z,0.75
2023-02-26T07:13:39.545Z,0.73
2023-02-26T07:16:09.946Z,1.13
2023-02-26T07:18:37.982Z,0.60
2023-02-26T07:21:05.541Z,0.90
2023-02-26T07:23:32.925Z,0.60
2023-02-26T07:26:00.618Z,0.55
2023-02-26T07:28:27.861Z,0.75
2023-02-26T07:30:57.172Z,0.90
2023-02-26T07:33:25.338Z,0.75
2023-02-26T07:35:52.089Z,0.50
2023-02-26T07:38:19.729Z,0.60
2023-02-26T07:40:47.271Z,0.60
2023-02-26T07:43:14.649Z,1.00
2023-02-26T07:45:41.521Z,0.65
2023-02-26T07:48:09.371Z,0.55
2023-02-26T07:50:39.488Z,0.73
2023-02-26T07:53:06.923Z,0.60
2023-02-26T07:55:33.983Z,0.70
2023-02-26T07:58:00.907Z,0.60
2023-02-26T08:00:27.953Z,0.75
2023-02-26T08:02:54.653Z,0.70
2023-02-26T08:05:21.577Z,0.60
2023-02-26T08:07:48.568Z,0.60
2023-02-26T08:10:15.832Z,0.70
2023-02-26T08:12:43.102Z,0.80
2023-02-26T08:15:14.877Z,0.60
2023-02-26T08:17:42.078Z,0.85
2023-02-26T08:20:10.068Z,0.90
2023-02-26T08:22:39.431Z,0.80
2023-02-26T08:25:07.065Z,1.20
2023-02-26T08:27:34.428Z,0.80
2023-02-26T08:30:01.477Z,0.73
2023-02-26T08:32:28.612Z,0.70
2023-02-26T08:34:56.039Z,0.70
2023-02-26T08:37:26.122Z,0.68
2023-02-26T08:39:53.297Z,0.88
2023-02-26T08:42:20.743Z,0.75
2023-02-26T08:44:50.691Z,0.80
2023-02-26T08:47:28.164Z,0.80
2023-02-26T08:49:59.154Z,0.88
2023-02-26T08:52:26.132Z,0.77
2023-02-26T08:54:53.863Z,0.88
2023-02-26T08:57:21.832Z,0.70
2023-02-26T08:59:54.869Z,0.85
2023-02-26T09:02:21.914Z,0.70
2023-02-26T09:04:52.656Z,0.98
2023-02-26T09:07:22.961Z,0.70
2023-02-26T09:09:50.014Z,1.00
2023-02-26T09:12:19.903Z,0.80
2023-02-26T09:14:46.904Z,0.70
2023-02-26T09:17:14.643Z,0.90
2023-02-26T09:19:41.941Z,0.60
2023-02-26T09:22:14.809Z,0.80
2023-02-26T09:24:42.511Z,0.55
2023-02-26T09:27:13.342Z,0.70
2023-02-26T09:29:43.813Z,0.80
2023-02-26T09:32:13.706Z,1.00
2023-02-26T09:34:43.079Z,0.60
2023-02-26T09:37:10.897Z,1.00
2023-02-26T09:39:39.445Z,1.15
2023-02-26T09:42:42.962Z,0.60
2023-02-26T09:45:27.007Z,0.80
2023-02-26T09:47:54.650Z,0.80
2023-02-26T09:50:47.833Z,0.70
2023-02-26T09:53:22.550Z,0.65
2023-02-26T09:55:51.168Z,0.80
2023-02-26T09:58:46.957Z,0.85
2023-02-26T10:01:24.824Z,0.80
2023-02-26T10:04:13.392Z,0.90
2023-02-26T10:07:05.996Z,0.70
2023-02-26T10:09:54.601Z,0.82
2023-02-26T10:12:26.877Z,0.82
2023-02-26T10:15:16.957Z,0.65
2023-02-26T10:17:55.386Z,0.77
2023-02-26T10:20:30.207Z,0.93
2023-02-26T10:23:17.498Z,0.70
2023-02-26T10:25:45.851Z,0.63
2023-02-26T10:28:34.996Z,0.60
2023-02-26T10:31:39.794Z,0.60
2023-02-26T10:34:16.211Z,0.77
2023-02-26T10:37:01.326Z,0.60
2023-02-26T10:39:52.394Z,0.60
2023-02-26T10:42:25.558Z,0.70
2023-02-26T10:45:10.215Z,0.60
2023-02-26T10:48:10.801Z,0.80
2023-02-26T10:50:41.235Z,0.75
2023-02-26T10:53:10.863Z,1.00
2023-02-26T10:56:12.268Z,0.57
2023-02-26T10:58:39.264Z,0.60
2023-02-26T11:01:14.040Z,1.15
2023-02-26T11:03:43.924Z,0.70
2023-02-26T11:06:16.027Z,0.70
2023-02-26T11:08:45.627Z,0.70
2023-02-26T11:11:38.907Z,0.70
2023-02-26T11:14:06.003Z,0.50
2023-02-26T11:16:33.050Z,0.68
2023-02-26T11:19:01.695Z,0.68
2023-02-26T11:21:31.597Z,0.60
2023-02-26T11:24:22.132Z,0.60
2023-02-26T11:26:57.870Z,0.80
2023-02-26T11:29:26.454Z,0.68
2023-02-26T11:31:58.571Z,0.77
2023-02-26T11:34:26.657Z,0.60
2023-02-26T11:37:08.209Z,0.95
2023-02-26T11:39:40.391Z,0.88
2023-02-26T11:42:11.224Z,0.68
2023-02-26T11:44:44.260Z,0.60
2023-02-26T11:47:22.596Z,0.70
2023-02-26T11:49:55.122Z,0.70
2023-02-26T11:52:30.774Z,0.90
2023-02-26T11:55:05.840Z,0.80
2023-02-26T11:57:43.062Z,0.90
2023-02-26T12:00:26.446Z,0.90
2023-02-26T12:03:15.765Z,0.55
2023-02-26T12:05:43.043Z,0.50
2023-02-26T12:08:39.789Z,0.60
2023-02-26T12:11:38.014Z,0.73
2023-02-26T12:14:24.660Z,1.00
2023-02-26T12:17:06.901Z,0.60
2023-02-26T12:20:15.557Z,0.60
2023-02-26T12:22:55.458Z,0.70
2023-02-26T12:25:38.033Z,0.55
2023-02-26T12:28:29.039Z,0.68
2023-02-26T12:31:20.388Z,0.60
2023-02-26T12:34:11.958Z,0.57
2023-02-26T12:36:50.863Z,0.52
2023-02-26T12:39:50.209Z,0.70
2023-02-26T12:42:20.484Z,0.82
2023-02-26T12:44:58.567Z,0.70
2023-02-26T12:47:31.506Z,0.70
2023-02-26T12:50:38.869Z,0.70
2023-02-26T12:53:20.844Z,0.68
2023-02-26T12:55:55.263Z,0.70
2023-02-26T12:59:12.256Z,0.70
2023-02-26T13:02:01.663Z,0.50
2023-02-26T13:04:36.258Z,0.68
2023-02-26T13:07:13.974Z,0.50
2023-02-26T13:09:54.085Z,0.70
2023-02-26T13:12:42.497Z,0.75
2023-02-26T13:15:31.720Z,0.93
2023-02-26T13:18:05.811Z,0.63
2023-02-26T13:20:36.268Z,0.70
2023-02-26T13:23:22.431Z,0.80
2023-02-26T13:25:53.809Z,0.90
2023-02-26T13:28:34.023Z,0.68
2023-02-26T13:31:05.297Z,0.60
2023-02-26T13:33:34.090Z,0.80
2023-02-26T13:36:01.883Z,0.60
2023-02-26T13:38:47.309Z,0.63
2023-02-26T13:41:21.981Z,0.40
2023-02-26T13:43:54.942Z,0.60
2023-02-26T13:46:50.541Z,0.50
2023-02-26T13:49:27.583Z,0.70
2023-02-26T13:51:55.293Z,0.65
2023-02-26T13:54:30.470Z,0.70
2023-02-26T13:57:26.095Z,0.63
2023-02-26T14:00:29.242Z,0.90
2023-02-26T14:03:12.365Z,0.80
2023-02-26T14:05:48.644Z,0.90
2023-02-26T14:08:21.673Z,0.60
2023-02-26T14:10:58.501Z,0.50
2023-02-26T14:13:40.425Z,0.57
2023-02-26T14:16:24.932Z,0.68
2023-02-26T14:18:53.104Z,0.60
2023-02-26T14:21:28.333Z,0.82
2023-02-26T14:23:59.666Z,0.73
2023-02-26T14:26:33.107Z,0.63
2023-02-26T14:29:05.720Z,0.68
2023-02-26T14:31:54.677Z,0.70
2023-02-26T14:34:37.988Z,0.57
2023-02-26T14:37:09.518Z,0.60
2023-02-26T14:39:39.835Z,0.60
2023-02-26T14:42:11.875Z,0.60
2023-02-26T14:44:44.758Z,0.50
2023-02-26T14:47:12.714Z,0.80
2023-02-26T14:49:45.816Z,0.80
2023-02-26T14:52:19.936Z,0.70
2023-02-26T14:55:21.147Z,0.50
2023-02-26T14:57:58.158Z,0.52
2023-02-26T15:00:52.137Z,0.70
2023-02-26T15:03:47.755Z,0.60
2023-02-26T15:06:33.585Z,0.80
2023-02-26T15:09:20.078Z,0.65
2023-02-26T15:12:01.980Z,0.90
2023-02-26T15:14:47.873Z,0.60
2023-02-26T15:17:27.184Z,0.50
2023-02-26T15:20:05.125Z,0.82
2023-02-26T15:23:04.925Z,0.57
2023-02-26T15:25:37.628Z,0.60
2023-02-26T15:28:06.720Z,0.43
2023-02-26T15:30:36.220Z,0.60
2023-02-26T15:33:11.732Z,0.60
2023-02-26T15:35:38.635Z,0.60
2023-02-26T15:38:05.926Z,0.60
2023-02-26T15:40:37.807Z,0.70
2023-02-26T15:43:07.220Z,0.65
2023-02-26T15:45:41.099Z,0.80
2023-02-26T15:48:31.938Z,0.90
2023-02-26T15:51:03.421Z,0.60
2023-02-26T15:53:46.242Z,0.60
2023-02-26T15:56:22.964Z,0.57
2023-02-26T15:58:54.104Z,0.77
2023-02-26T16:01:25.754Z,0.50
2023-02-26T16:03:57.653Z,0.63
2023-02-26T16:06:29.210Z,0.60
2023-02-26T16:08:56.826Z,0.70
2023-02-26T16:11:35.204Z,0.93
2023-02-26T16:14:03.531Z,0.70
2023-02-26T16:16:43.609Z,0.80
2023-02-26T16:19:21.306Z,0.70
2023-02-26T16:21:49.222Z,0.65
2023-02-26T16:24:19.190Z,0.90
2023-02-26T16:26:51.304Z,0.60
2023-02-26T16:29:38.705Z,0.73
2023-02-26T16:32:09.448Z,1.38
2023-02-26T16:34:47.803Z,1.00
2023-02-26T16:37:30.798Z,1.30
2023-02-26T16:40:24.475Z,1.30
2023-02-26T16:42:51.269Z,0.60
2023-02-26T16:45:23.990Z,0.80
2023-02-26T16:47:52.434Z,0.65
2023-02-26T16:50:22.634Z,0.88
2023-02-26T16:53:04.779Z,0.60
2023-02-26T16:55:34.977Z,0.50
2023-02-26T16:58:07.454Z,0.60
2023-02-26T17:00:37.609Z,0.80
2023-02-26T17:03:10.308Z,0.90
2023-02-26T17:05:37.784Z,0.52
2023-02-26T17:08:19.496Z,1.10
2023-02-26T17:10:50.059Z,0.80
2023-02-26T17:13:18.437Z,0.88
2023-02-26T17:15:47.145Z,0.80
2023-02-26T17:18:15.085Z,0.60
2023-02-26T17:20:43.120Z,0.63
2023-02-26T17:23:15.872Z,0.65
2023-02-26T17:25:47.945Z,0.80
2023-02-26T17:28:25.163Z,0.70
2023-02-26T17:30:55.781Z,1.10
2023-02-26T17:33:25.487Z,0.70
2023-02-26T17:36:03.152Z,0.80
2023-02-26T17:38:30.410Z,0.70
2023-02-26T17:40:58.560Z,0.75
2023-02-26T17:43:26.321Z,0.85
2023-02-26T17:45:54.072Z,0.70
2023-02-26T17:48:32.337Z,0.65
2023-02-26T17:51:00.005Z,0.82
2023-02-26T17:53:41.187Z,0.82
2023-02-26T17:56:29.635Z,1.00
2023-02-26T17:59:00.189Z,0.70
2023-02-26T18:01:29.438Z,1.02
2023-02-26T18:03:57.471Z,0.70
2023-02-26T18:06:25.467Z,1.20
2023-02-26T18:08:52.474Z,0.75
2023-02-26T18:11:20.936Z,0.75
2023-02-26T18:13:48.152Z,0.75
2023-02-26T18:16:21.107Z,0.68
2023-02-26T18:18:48.557Z,0.70
2023-02-26T18:21:17.723Z,0.93
2023-02-26T18:23:46.565Z,0.80
2023-02-26T18:26:17.172Z,0.70
2023-02-26T18:28:45.026Z,0.70
2023-02-26T18:31:13.562Z,0.70
2023-02-26T18:33:42.345Z,0.65
2023-02-26T18:36:13.589Z,0.80
2023-02-26T18:38:43.220Z,0.77
2023-02-26T18:41:10.169Z,0.80
2023-02-26T18:43:37.599Z,0.80
2023-02-26T18:46:05.099Z,0.98
2023-02-26T18:48:32.769Z,0.80
2023-02-26T18:51:00.521Z,1.00
2023-02-26T18:53:28.559Z,0.82
2023-02-26T18:55:58.617Z,0.90
2023-02-26T18:58:26.197Z,0.93
2023-02-26T19:00:54.005Z,1.13
2023-02-26T19:03:21.216Z,0.82
2023-02-26T19:05:57.438Z,0.85
2023-02-26T19:08:28.078Z,1.10
2023-02-26T19:10:58.619Z,0.80
2023-02-26T19:13:29.445Z,0.60
2023-02-26T19:15:59.212Z,0.52
2023-02-26T19:18:26.337Z,0.70
2023-02-26T19:20:53.948Z,0.80
2023-02-26T19:23:21.225Z,0.65
2023-02-26T19:25:52.059Z,0.90
2023-02-26T19:28:22.771Z,0.73
2023-02-26T19:30:50.625Z,0.93
2023-02-26T19:33:21.129Z,0.80
2023-02-26T19:35:48.190Z,0.68
2023-02-26T19:38:15.409Z,0.90
2023-02-26T19:40:42.716Z,0.82
2023-02-26T19:43:10.169Z,0.90
2023-02-26T19:45:42.072Z,0.82
2023-02-26T19:48:12.567Z,0.80
2023-02-26T19:50:40.567Z,1.20
2023-02-26T19:53:09.349Z,1.00
2023-02-26T19:55:39.054Z,1.20
2023-02-26T19:58:05.885Z,1.27
2023-02-26T20:00:33.147Z,1.60
2023-02-26T20:03:00.329Z,1.23
2023-02-26T20:05:27.354Z,1.90
2023-02-26T20:07:54.722Z,1.60
2023-02-26T20:10:23.865Z,1.48
2023-02-26T20:12:51.678Z,1.60
2023-02-26T20:15:18.993Z,1.65
2023-02-26T20:17:46.287Z,1.58
2023-02-26T20:20:13.886Z,1.20
2023-02-26T20:22:41.304Z,1.50
2023-02-26T20:25:09.545Z,1.35
2023-02-26T20:27:39.497Z,1.67
2023-02-26T20:30:07.439Z,1.20
2023-02-26T20:32:34.330Z,1.30
2023-02-26T20:35:01.558Z,1.42
2023-02-26T20:37:28.658Z,1.23
2023-02-26T20:39:55.644Z,1.05
2023-02-26T20:42:22.703Z,0.90
2023-02-26T20:44:52.410Z,1.30
2023-02-26T20:47:22.733Z,1.40
2023-02-26T20:49:50.025Z,1.17
2023-02-26T20:52:17.091Z,1.65
2023-02-26T20:54:47.110Z,1.40
2023-02-26T20:57:14.566Z,1.63
2023-02-26T20:59:41.622Z,1.10
2023-02-26T21:02:11.544Z,1.33
2023-02-26T21:04:38.700Z,1.15
2023-02-26T21:07:22.152Z,1.63
2023-02-26T21:09:51.847Z,2.00
2023-02-26T21:12:19.061Z,1.83
2023-02-26T21:14:46.291Z,1.25
2023-02-26T21:17:16.384Z,1.40
2023-02-26T21:19:43.669Z,1.50
2023-02-26T21:22:11.264Z,1.30
2023-02-26T21:24:38.727Z,1.52
2023-02-26T21:27:06.180Z,1.50
2023-02-26T21:29:33.346Z,1.70
2023-02-26T21:32:03.730Z,2.00
2023-02-26T21:34:34.284Z,1.30
2023-02-26T21:37:09.885Z,1.42
2023-02-26T21:39:39.018Z,1.27
2023-02-26T21:42:07.332Z,1.40
2023-02-26T21:44:35.446Z,1.67
2023-02-26T21:47:03.512Z,1.58
2023-02-26T21:49:31.994Z,1.23
2023-02-26T21:52:05.050Z,1.67
2023-02-26T21:54:32.578Z,1.20
2023-02-26T21:56:59.948Z,1.40
2023-02-26T21:59:27.495Z,1.15
2023-02-26T22:01:54.846Z,1.30
2023-02-26T22:04:22.712Z,1.63
2023-02-26T22:06:50.166Z,1.60
2023-02-26T22:09:19.600Z,1.23
2023-02-26T22:11:46.963Z,1.25
2023-02-26T22:14:14.202Z,1.40
2023-02-26T22:16:41.999Z,1.30
2023-02-26T22:19:08.921Z,1.60
2023-02-26T22:21:35.841Z,1.50
2023-02-26T22:24:03.961Z,1.10
2023-02-26T22:26:31.356Z,1.30
2023-02-26T22:29:00.288Z,0.77
2023-02-26T22:31:32.064Z,1.38
2023-02-26T22:33:59.513Z,1.35
2023-02-26T22:36:31.523Z,1.67
2023-02-26T22:38:59.237Z,1.40
2023-02-26T22:41:26.280Z,1.50
2023-02-26T22:43:56.047Z,1.92
2023-02-26T22:46:29.247Z,1.75
2023-02-26T22:48:56.450Z,1.63
2023-02-26T22:51:28.528Z,2.00
2023-02-26T22:53:56.346Z,2.13
2023-02-26T22:56:23.352Z,2.15
2023-02-26T22:58:50.613Z,1.92
2023-02-26T23:01:18.856Z,2.38
2023-02-26T23:03:47.809Z,2.20
2023-02-26T23:06:15.883Z,2.40
2023-02-26T23:08:48.596Z,2.17
2023-02-26T23:11:15.567Z,2.58
2023-02-26T23:13:42.878Z,2.00
2023-02-26T23:16:10.966Z,2.00
2023-02-26T23:18:38.585Z,2.10
2023-02-26T23:21:07.650Z,2.28
2023-02-26T23:23:34.784Z,2.50
2023-02-26T23:28:54.002Z,1.98
2023-02-26T23:31:21.608Z,2.17
2023-02-26T23:33:48.895Z,1.95
2023-02-26T23:36:16.164Z,2.60
2023-02-26T23:38:43.590Z,2.40
2023-02-26T23:41:10.782Z,2.58
2023-02-26T23:43:38.790Z,2.22
2023-02-26T23:46:10.409Z,2.42
2023-02-26T23:48:37.516Z,2.03
2023-02-26T23:51:04.800Z,2.30
2023-02-26T23:53:32.917Z,2.10
2023-02-26T23:56:00.440Z,2.20
2023-02-26T23:58:29.228Z,2.10
